Anapa, Russia
Current Conditions -  °F | °C
As of 10:30 AM on Saturday 25 Oct 2014 (Local Time) from URKA Reporting Station
Overcast Overcast  
Wind Chill: 23°   Ceiling: 1300
Heat Index: 34°   Visibility: 6mi
Dew Point: 30°   Wind: 18mph
Humidity: 87%   Direction: 70°ENE
Pressure: 30.21"   Gusts: 25mph
Location:  44.89°N, 37.32°E
Report Text: URKA 250730Z 07008G11MPS 9999 BKN013 OVC110 01/M01 Q1023 NOSIGRMK QFE763/1018 SC070
Loading
Personal Weather Stations






























Interactive Weather Map
Tropical Storm Tracking
New forecast layout! Learn more

10-Day Weather Forecast

Advertisements
Track Severe Weather on mobile